Time;durP1;ratioP1;P1;durP2;ratioP2;P2;SDS_P1;SDS_P2;PMS_P1;PMS_P2;Temp;Humidity;BMP_temperature;BMP_pressure;BME280_temperature;BME280_humidity;BME280_pressure;Samples;Min_cycle;Max_cycle;Signal;HPM_P1;HPM_P2
2021/12/04 00:02:13;;;;;;;;;;;5.10;99.90;;;;;;5004392;28;20077;-76
2021/12/04 00:04:42;;;;;;;;;;;5.10;99.90;;;;;;5020591;28;20073;-76
2021/12/04 00:07:10;;;;;;;;;;;5.10;99.90;;;;;;5002372;28;20052;-76
2021/12/04 00:09:38;;;;;;;;;;;5.10;99.90;;;;;;5018455;28;20060;-75
2021/12/04 00:12:07;;;;;;;;;;;5.10;99.90;;;;;;5034226;28;20067;-75
2021/12/04 00:14:35;;;;;;;;;;;5.10;99.90;;;;;;5020288;28;21239;-75
2021/12/04 00:17:03;;;;;;;;;;;5.10;99.90;;;;;;5011184;28;20068;-75
2021/12/04 00:19:30;;;;;;;;;;;5.10;99.90;;;;;;5010344;28;20077;-76
2021/12/04 00:21:57;;;;;;;;;;;5.10;99.90;;;;;;5034704;28;21037;-74
2021/12/04 00:24:25;;;;;;;;;;;5.10;99.90;;;;;;5016825;28;21177;-76
2021/12/04 00:26:53;;;;;;;;;;;5.10;99.90;;;;;;5032810;28;20158;-75
2021/12/04 00:29:22;;;;;;;;;;;5.10;99.90;;;;;;5010751;28;21264;-75
2021/12/04 00:31:50;;;;;;;;;;;5.10;99.90;;;;;;5002150;28;20069;-76
2021/12/04 00:34:18;;;;;;;;;;;5.10;99.90;;;;;;5022756;28;20091;-75
2021/12/04 00:37:03;;;;;;;;;;;5.10;99.90;;;;;;5002563;28;20359;-75
2021/12/04 00:50:29;;;;;;;;;;;5.10;99.90;;;;;;5011821;28;20137;-75
2021/12/04 00:52:57;;;;;;;;;;;5.00;99.90;;;;;;5015680;28;20061;-75
2021/12/04 00:55:24;;;;;;;;;;;5.00;99.90;;;;;;5002547;28;20162;-74
2021/12/04 00:57:52;;;;;;;;;;;5.00;99.90;;;;;;5023652;28;20171;-75
2021/12/04 01:00:21;;;;;;;;;;;5.00;99.90;;;;;;5017752;28;20084;-75
2021/12/04 01:02:48;;;;;;;;;;;5.00;99.90;;;;;;5011605;28;20187;-75
2021/12/04 01:05:15;;;;;;;;;;;4.90;99.90;;;;;;5001688;28;20158;-74
2021/12/04 01:07:42;;;;;;;;;;;4.90;99.90;;;;;;5017692;28;20077;-76
2021/12/04 01:10:10;;;;;;;;;;;4.90;99.90;;;;;;5025761;28;20060;-75
2021/12/04 01:12:38;;;;;;;;;;;4.90;99.90;;;;;;5002877;28;20084;-75
2021/12/04 01:15:05;;;;;;;;;;;4.90;99.90;;;;;;5023899;28;20088;-75
2021/12/04 01:17:34;;;;;;;;;;;4.80;99.90;;;;;;5003081;28;20069;-75
2021/12/04 01:20:01;;;;;;;;;;;4.80;99.90;;;;;;5035113;28;20061;-76
2021/12/04 01:22:28;;;;;;;;;;;4.80;99.90;;;;;;5033984;28;20068;-75
2021/12/04 01:24:55;;;;;;;;;;;4.70;99.90;;;;;;5019080;28;20152;-75
2021/12/04 01:27:23;;;;;;;;;;;4.70;99.90;;;;;;5031070;28;20060;-75
2021/12/04 01:29:51;;;;;;;;;;;4.60;99.90;;;;;;5015693;28;20191;-75
2021/12/04 01:32:18;;;;;;;;;;;4.50;99.90;;;;;;5041143;28;20084;-75
2021/12/04 01:34:47;;;;;;;;;;;4.50;99.90;;;;;;5005978;28;21120;-75
2021/12/04 01:37:14;;;;;;;;;;;4.40;99.90;;;;;;5017087;28;20068;-74
2021/12/04 01:39:41;;;;;;;;;;;4.40;99.90;;;;;;5002272;28;20069;-75
2021/12/04 01:42:09;;;;;;;;;;;4.40;99.90;;;;;;5020502;28;20061;-74
2021/12/04 01:44:36;;;;;;;;;;;4.40;99.90;;;;;;5004005;28;20068;-75
2021/12/04 01:47:11;;;;;;;;;;;4.40;99.90;;;;;;5035110;28;21008;-76
2021/12/04 01:49:38;;;;;;;;;;;4.30;99.90;;;;;;5019201;28;21297;-76
2021/12/04 01:52:07;;;;;;;;;;;4.30;99.90;;;;;;5033611;28;20169;-75
2021/12/04 01:54:34;;;;;;;;;;;4.20;99.90;;;;;;5022002;28;20281;-76
2021/12/04 01:57:01;;;;;;;;;;;4.20;99.90;;;;;;5038795;28;20060;-75
2021/12/04 01:59:29;;;;;;;;;;;4.20;99.90;;;;;;5005169;28;20082;-75
2021/12/04 02:01:56;;;;;;;;;;;4.20;99.90;;;;;;5035052;28;20100;-75
2021/12/04 02:04:24;;;;;;;;;;;4.20;99.90;;;;;;5022316;28;21047;-75
2021/12/04 02:06:51;;;;;;;;;;;4.20;99.90;;;;;;5034910;28;20099;-74
2021/12/04 02:09:19;;;;;;;;;;;4.20;99.90;;;;;;5008087;28;20084;-75
2021/12/04 02:11:47;;;;;;;;;;;4.20;99.90;;;;;;5016811;28;20195;-75
2021/12/04 02:14:14;;;;;;;;;;;4.20;99.90;;;;;;5022412;28;20080;-75
2021/12/04 02:16:41;;;;;;;;;;;4.10;99.90;;;;;;5021369;28;20067;-76
2021/12/04 02:19:08;;;;;;;;;;;4.10;99.90;;;;;;5005439;28;20067;-75
2021/12/04 02:21:37;;;;;;;;;;;4.10;99.90;;;;;;5037305;28;20077;-75
2021/12/04 02:24:04;;;;;;;;;;;4.10;99.90;;;;;;5021595;28;20067;-75
2021/12/04 02:26:31;;;;;;;;;;;4.10;99.90;;;;;;5008093;28;20170;-75
2021/12/04 02:28:58;;;;;;;;;;;4.10;99.90;;;;;;5030908;28;20084;-75
2021/12/04 02:31:26;;;;;;;;;;;4.10;99.90;;;;;;5028340;28;20064;-75
2021/12/04 02:33:53;;;;;;;;;;;4.10;99.90;;;;;;5031171;28;20088;-75
2021/12/04 02:36:20;;;;;;;;;;;4.10;99.90;;;;;;5004206;28;20170;-75
2021/12/04 02:38:51;;;;;;;;;;;4.10;99.90;;;;;;5019599;28;21177;-75
2021/12/04 02:41:19;;;;;;;;;;;4.10;99.90;;;;;;5004888;28;20196;-75
2021/12/04 02:43:47;;;;;;;;;;;4.10;99.90;;;;;;5018149;28;20067;-75
2021/12/04 02:46:14;;;;;;;;;;;4.10;99.90;;;;;;5031821;28;21136;-75
2021/12/04 02:48:42;;;;;;;;;;;4.10;99.90;;;;;;5009387;28;20105;-76
2021/12/04 02:51:10;;;;;;;;;;;4.10;99.90;;;;;;5005607;28;20279;-75
2021/12/04 02:53:37;;;;;;;;;;;4.10;99.90;;;;;;5031078;28;20068;-75
2021/12/04 02:56:06;;;;;;;;;;;4.10;99.90;;;;;;5030833;28;21267;-75
2021/12/04 02:58:34;;;;;;;;;;;4.10;99.90;;;;;;5020588;28;20230;-74
2021/12/04 03:01:01;;;;;;;;;;;4.00;99.90;;;;;;5007003;28;20059;-73
2021/12/04 03:03:29;;;;;;;;;;;4.00;99.90;;;;;;5005286;28;20069;-73
2021/12/04 03:05:56;;;;;;;;;;;4.00;99.90;;;;;;5025918;28;21064;-73
2021/12/04 03:08:25;;;;;;;;;;;4.00;99.90;;;;;;5037091;28;20068;-75
2021/12/04 03:10:52;;;;;;;;;;;4.00;99.90;;;;;;5024504;28;20067;-75
2021/12/04 03:13:22;;;;;;;;;;;4.10;99.90;;;;;;5019151;28;20222;-75
2021/12/04 03:15:56;;;;;;;;;;;4.10;99.90;;;;;;5002984;28;20069;-76
2021/12/04 03:18:23;;;;;;;;;;;4.10;99.90;;;;;;5038539;28;20074;-75
2021/12/04 03:20:52;;;;;;;;;;;4.10;99.90;;;;;;5023153;28;20083;-76
2021/12/04 03:23:27;;;;;;;;;;;4.10;99.90;;;;;;5016361;28;20094;-75
2021/12/04 03:25:56;;;;;;;;;;;4.00;99.90;;;;;;5004593;28;20261;-75
2021/12/04 03:28:26;;;;;;;;;;;4.00;99.90;;;;;;5039677;28;21084;-76
2021/12/04 03:30:57;;;;;;;;;;;4.00;99.90;;;;;;5018165;28;20069;-75
2021/12/04 03:41:34;;;;;;;;;;;3.90;99.90;;;;;;5010218;28;20079;-76
2021/12/04 03:44:02;;;;;;;;;;;3.90;99.90;;;;;;5051476;28;20077;-76
2021/12/04 03:46:30;;;;;;;;;;;3.90;99.90;;;;;;5070819;28;20251;-76
2021/12/04 03:48:57;;;;;;;;;;;3.90;99.90;;;;;;5088051;28;20052;-75
2021/12/04 03:51:24;;;;;;;;;;;3.90;99.90;;;;;;5075730;28;20040;-76
2021/12/04 03:53:51;;;;;;;;;;;3.90;99.90;;;;;;5069569;28;20292;-75
2021/12/04 03:56:22;;;;;;;;;;;3.90;99.90;;;;;;5003986;28;20060;-75
2021/12/04 03:58:49;;;;;;;;;;;3.90;99.90;;;;;;5033755;28;20088;-75
2021/12/04 04:01:17;;;;;;;;;;;3.90;99.90;;;;;;5021413;28;20079;-76
2021/12/04 04:03:45;;;;;;;;;;;3.90;99.90;;;;;;5004278;28;20069;-75
2021/12/04 04:06:12;;;;;;;;;;;3.90;99.90;;;;;;5019083;28;21138;-76
2021/12/04 04:08:39;;;;;;;;;;;3.90;99.90;;;;;;5007018;28;20149;-75
2021/12/04 04:11:06;;;;;;;;;;;3.90;99.90;;;;;;5020902;28;20134;-75
2021/12/04 04:13:33;;;;;;;;;;;3.90;99.90;;;;;;5020695;28;20149;-76
2021/12/04 04:16:01;;;;;;;;;;;3.90;99.90;;;;;;5031153;28;21114;-74
2021/12/04 04:18:32;;;;;;;;;;;3.90;99.90;;;;;;5012178;28;20074;-75
2021/12/04 04:20:59;;;;;;;;;;;3.90;99.90;;;;;;5028939;28;20069;-76
2021/12/04 04:23:27;;;;;;;;;;;3.90;99.90;;;;;;5003646;28;20067;-75
2021/12/04 04:25:54;;;;;;;;;;;3.90;99.90;;;;;;5016215;28;20069;-76
2021/12/04 04:28:21;;;;;;;;;;;4.00;99.90;;;;;;5038466;28;20078;-76
2021/12/04 04:30:48;;;;;;;;;;;3.90;99.90;;;;;;5029451;28;20061;-76
2021/12/04 04:33:15;;;;;;;;;;;3.90;99.90;;;;;;5008511;28;21153;-74
2021/12/04 04:35:47;;;;;;;;;;;3.90;99.90;;;;;;5002899;28;20067;-76
2021/12/04 04:38:25;;;;;;;;;;;3.90;99.90;;;;;;5007134;28;20256;-74
2021/12/04 04:57:34;;;;;;;;;;;3.80;99.90;;;;;;5001929;28;20064;-75
2021/12/04 05:00:12;;;;;;;;;;;3.80;99.90;;;;;;5041333;28;20156;-75
2021/12/04 05:11:05;;;;;;;;;;;3.80;99.90;;;;;;5004196;28;20094;-74
2021/12/04 05:13:33;;;;;;;;;;;3.80;99.90;;;;;;5028552;28;20242;-75
2021/12/04 05:16:10;;;;;;;;;;;3.80;99.90;;;;;;5020561;28;20077;-74
2021/12/04 05:18:40;;;;;;;;;;;3.80;99.90;;;;;;5002402;28;20176;-75
2021/12/04 05:21:08;;;;;;;;;;;3.80;99.90;;;;;;5027830;28;20088;-74
2021/12/04 05:23:37;;;;;;;;;;;3.80;99.90;;;;;;5003344;28;20148;-75
2021/12/04 05:26:06;;;;;;;;;;;3.80;99.90;;;;;;5027275;28;20095;-76
2021/12/04 05:28:33;;;;;;;;;;;3.70;99.90;;;;;;5032793;28;20501;-75
2021/12/04 05:31:00;;;;;;;;;;;3.70;99.90;;;;;;5034589;28;21024;-76
2021/12/04 05:33:27;;;;;;;;;;;3.70;99.90;;;;;;5023988;28;20169;-75
2021/12/04 05:35:55;;;;;;;;;;;3.70;99.90;;;;;;5007806;28;20075;-76
2021/12/04 05:38:22;;;;;;;;;;;3.70;99.90;;;;;;5024800;28;20068;-75
2021/12/04 05:40:50;;;;;;;;;;;3.70;99.90;;;;;;5016204;28;20141;-75
2021/12/04 05:43:22;;;;;;;;;;;3.70;99.90;;;;;;5033508;28;20105;-76
2021/12/04 05:45:52;;;;;;;;;;;3.70;99.90;;;;;;5006559;28;21102;-76
2021/12/04 05:48:26;;;;;;;;;;;3.70;99.90;;;;;;5004910;28;20084;-74
2021/12/04 05:53:57;;;;;;;;;;;3.60;99.90;;;;;;4971828;28;20086;-75
2021/12/04 05:56:28;;;;;;;;;;;3.60;99.90;;;;;;5004842;28;20051;-75
2021/12/04 05:58:56;;;;;;;;;;;3.60;99.90;;;;;;5006941;28;20059;-76
2021/12/04 06:01:26;;;;;;;;;;;3.60;99.90;;;;;;5000401;28;20068;-76
2021/12/04 06:03:53;;;;;;;;;;;3.60;99.90;;;;;;4994023;28;20569;-76
2021/12/04 06:06:21;;;;;;;;;;;3.60;99.90;;;;;;5037787;28;20161;-76
2021/12/04 06:08:48;;;;;;;;;;;3.70;99.90;;;;;;5025076;28;20067;-75
2021/12/04 06:11:15;;;;;;;;;;;3.70;99.90;;;;;;5002490;28;20069;-76
2021/12/04 06:13:44;;;;;;;;;;;3.60;99.90;;;;;;5018499;28;20265;-76
2021/12/04 06:16:11;;;;;;;;;;;3.60;99.90;;;;;;5036233;28;20069;-76
2021/12/04 06:18:39;;;;;;;;;;;3.60;99.90;;;;;;5004754;28;20069;-76
2021/12/04 06:23:50;;;;;;;;;;;3.60;99.90;;;;;;5003483;28;20086;-75
2021/12/04 06:26:17;;;;;;;;;;;3.60;99.90;;;;;;5030024;28;21052;-75
2021/12/04 06:28:46;;;;;;;;;;;3.50;99.90;;;;;;5001851;28;20096;-76
2021/12/04 06:31:14;;;;;;;;;;;3.50;99.90;;;;;;5004671;28;20100;-76
2021/12/04 06:33:41;;;;;;;;;;;3.50;99.90;;;;;;5035460;28;20076;-76
2021/12/04 06:36:08;;;;;;;;;;;3.50;99.90;;;;;;5028172;28;20099;-75
2021/12/04 06:38:36;;;;;;;;;;;3.50;99.90;;;;;;5010718;28;20060;-75
2021/12/04 06:41:04;;;;;;;;;;;3.50;99.90;;;;;;5007306;28;20162;-75
2021/12/04 06:43:31;;;;;;;;;;;3.50;99.90;;;;;;5024743;28;20157;-75
2021/12/04 06:46:02;;;;;;;;;;;3.60;99.90;;;;;;5005677;28;20068;-75
2021/12/04 06:48:36;;;;;;;;;;;3.50;99.90;;;;;;5034069;28;20060;-75
2021/12/04 06:51:08;;;;;;;;;;;3.50;99.90;;;;;;5021475;28;20332;-75
2021/12/04 06:53:39;;;;;;;;;;;3.60;99.90;;;;;;5033746;28;20288;-76
2021/12/04 06:56:08;;;;;;;;;;;3.60;99.90;;;;;;5006555;28;20060;-75
2021/12/04 06:58:36;;;;;;;;;;;3.60;99.90;;;;;;5021023;28;21196;-75
2021/12/04 07:01:05;;;;;;;;;;;3.60;99.90;;;;;;5010593;28;21082;-75
2021/12/04 07:03:33;;;;;;;;;;;3.60;99.90;;;;;;5020763;28;20178;-75
2021/12/04 07:06:00;;;;;;;;;;;3.70;99.90;;;;;;5034204;28;21123;-78
2021/12/04 07:08:27;;;;;;;;;;;3.70;99.90;;;;;;5024345;28;20188;-75
2021/12/04 07:10:54;;;;;;;;;;;3.70;99.90;;;;;;5030967;28;20252;-74
2021/12/04 07:13:21;;;;;;;;;;;3.70;99.90;;;;;;5024072;28;21205;-75
2021/12/04 07:15:58;;;;;;;;;;;3.70;99.90;;;;;;5007385;28;20226;-75
2021/12/04 07:18:27;;;;;;;;;;;3.70;99.90;;;;;;5000714;28;20059;-75
2021/12/04 07:20:54;;;;;;;;;;;3.70;99.90;;;;;;4999454;28;20108;-75
2021/12/04 07:23:21;;;;;;;;;;;3.70;99.90;;;;;;5018322;28;21064;-75
2021/12/04 07:25:48;;;;;;;;;;;3.60;99.90;;;;;;5035287;28;20060;-75
2021/12/04 07:28:15;;;;;;;;;;;3.70;99.90;;;;;;5002542;28;20163;-75
2021/12/04 07:30:42;;;;;;;;;;;3.60;99.90;;;;;;5000001;28;21024;-75
2021/12/04 07:33:09;;;;;;;;;;;3.60;99.90;;;;;;5020823;28;20077;-74
2021/12/04 07:35:38;;;;;;;;;;;3.60;99.90;;;;;;5005642;28;20075;-75
2021/12/04 07:38:05;;;;;;;;;;;3.60;99.90;;;;;;5018581;28;20299;-74
2021/12/04 07:40:33;;;;;;;;;;;3.60;99.90;;;;;;5010213;28;20060;-75
2021/12/04 07:43:00;;;;;;;;;;;3.70;99.90;;;;;;5018589;28;20069;-74
2021/12/04 07:45:27;;;;;;;;;;;3.60;99.90;;;;;;5020110;28;20060;-75
2021/12/04 07:47:54;;;;;;;;;;;3.70;99.90;;;;;;5005341;28;20051;-76
2021/12/04 07:50:21;;;;;;;;;;;3.70;99.90;;;;;;5023570;28;21215;-75
2021/12/04 07:52:50;;;;;;;;;;;3.70;99.90;;;;;;5030537;23;21138;-72
2021/12/04 07:55:17;;;;;;;;;;;3.80;99.90;;;;;;4999627;28;21178;-72
2021/12/04 07:57:45;;;;;;;;;;;3.80;99.90;;;;;;4993387;28;20105;-72
2021/12/04 08:00:13;;;;;;;;;;;3.80;99.90;;;;;;4999014;28;20069;-72
2021/12/04 08:02:41;;;;;;;;;;;3.80;99.90;;;;;;4994553;28;20069;-73
2021/12/04 08:05:09;;;;;;;;;;;3.90;99.90;;;;;;4988852;28;20083;-72
2021/12/04 08:07:36;;;;;;;;;;;3.90;99.90;;;;;;5008967;28;20276;-72
2021/12/04 08:10:05;;;;;;;;;;;3.90;99.90;;;;;;4990004;28;20171;-72
2021/12/04 08:12:32;;;;;;;;;;;4.00;99.90;;;;;;4982582;28;20141;-73
2021/12/04 08:14:59;;;;;;;;;;;4.00;99.90;;;;;;5002135;28;20084;-72
2021/12/04 08:17:26;;;;;;;;;;;4.10;99.90;;;;;;4991442;28;20179;-72
2021/12/04 08:19:53;;;;;;;;;;;4.10;99.90;;;;;;4988642;28;20162;-72
2021/12/04 08:22:20;;;;;;;;;;;4.10;99.90;;;;;;4992254;28;20332;-77
2021/12/04 08:24:48;;;;;;;;;;;4.10;99.90;;;;;;4995994;28;20058;-73
2021/12/04 08:27:17;;;;;;;;;;;4.20;99.90;;;;;;4990105;28;20060;-73
2021/12/04 08:29:45;;;;;;;;;;;4.20;99.90;;;;;;4995117;28;20141;-73
2021/12/04 08:32:12;;;;;;;;;;;4.20;99.90;;;;;;4989500;28;20069;-72
2021/12/04 08:34:39;;;;;;;;;;;4.30;99.90;;;;;;4987040;28;20073;-73
2021/12/04 08:37:07;;;;;;;;;;;4.30;99.90;;;;;;5003924;28;20094;-74
2021/12/04 08:39:34;;;;;;;;;;;4.30;99.90;;;;;;4991151;28;21121;-72
2021/12/04 08:42:01;;;;;;;;;;;4.40;99.90;;;;;;4989203;28;20159;-72
2021/12/04 08:44:30;;;;;;;;;;;4.40;99.90;;;;;;4996197;28;20103;-74
2021/12/04 08:46:58;;;;;;;;;;;4.40;99.90;;;;;;5011586;28;21101;-72
2021/12/04 08:49:25;;;;;;;;;;;4.50;99.90;;;;;;5009508;28;20171;-73
2021/12/04 08:51:52;;;;;;;;;;;4.50;99.90;;;;;;4995591;28;20178;-72
2021/12/04 08:54:19;;;;;;;;;;;4.60;99.90;;;;;;5002728;28;20178;-73
2021/12/04 08:56:46;;;;;;;;;;;4.70;99.90;;;;;;4993270;28;20060;-73
2021/12/04 08:59:13;;;;;;;;;;;4.80;99.90;;;;;;4999303;28;20069;-73
2021/12/04 09:01:43;;;;;;;;;;;4.90;99.90;;;;;;4993013;28;20061;-73
2021/12/04 09:04:11;;;;;;;;;;;5.00;99.90;;;;;;5010162;28;20069;-73
2021/12/04 09:06:38;;;;;;;;;;;5.10;99.90;;;;;;4993089;28;20078;-73
2021/12/04 09:09:06;;;;;;;;;;;5.20;99.90;;;;;;4990206;28;21138;-73
2021/12/04 09:11:35;;;;;;;;;;;5.30;99.90;;;;;;4992610;28;20076;-70
2021/12/04 09:14:03;;;;;;;;;;;5.40;99.90;;;;;;4990542;28;20075;-72
2021/12/04 09:16:31;;;;;;;;;;;5.50;99.90;;;;;;5001135;28;20061;-70
2021/12/04 09:18:59;;;;;;;;;;;5.50;99.90;;;;;;4999186;28;20064;-70
2021/12/04 09:21:27;;;;;;;;;;;5.50;99.90;;;;;;4986271;28;21155;-71
2021/12/04 09:24:02;;;;;;;;;;;5.60;99.90;;;;;;4984968;28;21102;-70
2021/12/04 09:26:39;;;;;;;;;;;5.60;99.90;;;;;;5001275;28;20067;-71
2021/12/04 09:29:13;;;;;;;;;;;5.60;99.90;;;;;;4993880;28;20161;-73
2021/12/04 09:32:05;;;;;;;;;;;5.60;99.90;;;;;;4980894;28;21163;-71
2021/12/04 09:34:58;;;;;;;;;;;5.50;99.90;;;;;;4978082;28;20067;-71
2021/12/04 09:40:28;;;;;;;;;;;5.40;99.90;;;;;;4993114;28;20258;-70
2021/12/04 09:59:50;;;;;;;;;;;5.10;99.90;;;;;;4993053;28;20063;-73
2021/12/04 10:02:28;;;;;;;;;;;5.10;99.90;;;;;;4996190;28;21224;-73
2021/12/04 10:05:12;;;;;;;;;;;5.20;99.90;;;;;;4985781;28;20060;-74
2021/12/04 10:19:00;;;;;;;;;;;5.60;99.90;;;;;;4999699;28;20069;-73
2021/12/04 10:21:38;;;;;;;;;;;5.70;99.90;;;;;;4996043;28;21438;-72
2021/12/04 10:32:37;;;;;;;;;;;5.80;99.90;;;;;;4937793;28;20062;-73
2021/12/04 10:35:07;;;;;;;;;;;5.80;99.90;;;;;;4973424;28;20173;-72
2021/12/04 10:37:37;;;;;;;;;;;5.70;99.90;;;;;;4995742;28;20171;-73
2021/12/04 10:40:08;;;;;;;;;;;5.60;99.90;;;;;;4994909;28;21167;-70
2021/12/04 10:42:41;;;;;;;;;;;5.60;99.90;;;;;;4994240;28;20171;-70
2021/12/04 10:45:09;;;;;;;;;;;5.60;99.90;;;;;;4983366;28;20069;-70
2021/12/04 10:47:36;;;;;;;;;;;5.60;99.90;;;;;;5026365;28;20068;-70
2021/12/04 10:50:16;;;;;;;;;;;5.60;99.90;;;;;;4999344;28;21103;-70
2021/12/04 10:52:57;;;;;;;;;;;5.60;99.90;;;;;;5011632;28;20097;-70
2021/12/04 10:55:31;;;;;;;;;;;5.60;99.90;;;;;;5001439;28;20083;-72
2021/12/04 10:58:27;;;;;;;;;;;5.60;99.90;;;;;;5003311;28;20075;-73
2021/12/04 11:01:08;;;;;;;;;;;5.60;99.90;;;;;;4996792;28;20275;-72
2021/12/04 11:03:43;;;;;;;;;;;5.60;99.90;;;;;;4992060;28;20206;-73
2021/12/04 11:20:34;;;;;;;;;;;6.00;99.90;;;;;;5007972;28;20046;-74
2021/12/04 11:28:45;;;;;;;;;;;6.10;99.90;;;;;;4994506;28;20094;-73
2021/12/04 11:37:03;;;;;;;;;;;6.40;99.90;;;;;;5011138;28;20056;-74
2021/12/04 11:42:23;;;;;;;;;;;6.50;99.90;;;;;;5006954;28;20326;-71
2021/12/04 11:44:55;;;;;;;;;;;6.60;99.90;;;;;;4992382;28;20089;-70
2021/12/04 11:47:22;;;;;;;;;;;6.60;99.90;;;;;;4992274;28;20063;-72
2021/12/04 11:49:50;;;;;;;;;;;6.50;99.90;;;;;;5006227;28;20095;-71
2021/12/04 11:52:18;;;;;;;;;;;6.60;99.90;;;;;;4994993;28;20060;-71
2021/12/04 11:54:48;;;;;;;;;;;6.60;99.90;;;;;;5005384;28;20060;-70
2021/12/04 11:57:17;;;;;;;;;;;6.60;99.90;;;;;;4991407;28;20240;-71
2021/12/04 11:59:45;;;;;;;;;;;6.60;99.90;;;;;;4987634;28;21044;-70
2021/12/04 12:02:19;;;;;;;;;;;6.50;99.90;;;;;;5008080;28;20183;-70
2021/12/04 12:04:48;;;;;;;;;;;6.40;99.90;;;;;;5010944;28;20166;-70
2021/12/04 12:07:16;;;;;;;;;;;6.30;99.90;;;;;;4986879;28;20069;-70
2021/12/04 12:09:44;;;;;;;;;;;6.30;99.90;;;;;;4993554;28;20104;-70
2021/12/04 12:12:13;;;;;;;;;;;6.30;99.90;;;;;;4993581;28;21296;-71
2021/12/04 12:14:45;;;;;;;;;;;6.20;99.90;;;;;;4992430;28;20069;-70
2021/12/04 12:17:12;;;;;;;;;;;6.10;99.90;;;;;;4986841;28;20212;-70
2021/12/04 12:19:48;;;;;;;;;;;6.10;99.90;;;;;;5000563;28;20075;-70
2021/12/04 12:22:27;;;;;;;;;;;6.00;99.90;;;;;;4994229;28;20066;-70
2021/12/04 12:25:10;;;;;;;;;;;5.90;99.90;;;;;;4984322;28;21190;-70
2021/12/04 12:27:56;;;;;;;;;;;5.80;99.90;;;;;;4974316;28;21035;-70
2021/12/04 12:33:15;;;;;;;;;;;5.80;99.90;;;;;;4987787;28;20193;-71
2021/12/04 12:36:03;;;;;;;;;;;5.70;99.90;;;;;;4992477;28;20237;-70
2021/12/04 12:38:31;;;;;;;;;;;5.70;99.90;;;;;;4983581;28;21160;-70
2021/12/04 12:41:00;;;;;;;;;;;5.70;99.90;;;;;;4988780;28;20178;-70
2021/12/04 12:43:35;;;;;;;;;;;5.70;99.90;;;;;;4996975;28;20069;-70
2021/12/04 12:46:02;;;;;;;;;;;5.60;99.90;;;;;;4987534;28;20092;-70
2021/12/04 12:48:29;;;;;;;;;;;5.60;99.90;;;;;;5011048;28;20078;-70
2021/12/04 12:51:06;;;;;;;;;;;5.60;99.90;;;;;;4987194;28;20168;-70
2021/12/04 12:53:40;;;;;;;;;;;5.50;99.90;;;;;;5006400;28;21129;-70
2021/12/04 12:56:09;;;;;;;;;;;5.50;99.90;;;;;;4989722;28;20170;-70
2021/12/04 12:58:42;;;;;;;;;;;5.50;99.90;;;;;;4990007;28;20069;-70
2021/12/04 13:12:23;;;;;;;;;;;5.60;99.90;;;;;;5011055;28;20056;-70
2021/12/04 13:14:53;;;;;;;;;;;5.60;99.90;;;;;;5002811;28;20053;-70
2021/12/04 13:17:21;;;;;;;;;;;5.70;99.90;;;;;;4987044;28;20058;-70
2021/12/04 13:19:51;;;;;;;;;;;5.70;99.90;;;;;;5001151;28;20060;-70
2021/12/04 13:22:22;;;;;;;;;;;5.70;99.90;;;;;;4990986;28;20187;-70
2021/12/04 13:24:50;;;;;;;;;;;5.70;99.90;;;;;;5003731;28;20076;-70
2021/12/04 13:29:45;;;;;;;;;;;5.70;99.90;;;;;;5022980;28;20082;-70
2021/12/04 13:32:14;;;;;;;;;;;5.70;99.90;;;;;;5023339;28;20061;-70
2021/12/04 13:34:42;;;;;;;;;;;5.60;99.90;;;;;;4994288;28;20166;-70
2021/12/04 13:37:10;;;;;;;;;;;5.60;99.90;;;;;;4988929;28;20235;-70
2021/12/04 13:39:40;;;;;;;;;;;5.60;99.90;;;;;;5000519;28;20075;-70
2021/12/04 13:42:07;;;;;;;;;;;5.60;99.90;;;;;;4996550;28;20141;-70
2021/12/04 13:44:34;;;;;;;;;;;5.60;99.90;;;;;;5002884;28;21148;-71
2021/12/04 13:47:03;;;;;;;;;;;5.60;99.90;;;;;;5029856;28;20061;-70
2021/12/04 13:49:33;;;;;;;;;;;5.50;99.90;;;;;;4994342;28;20078;-70
2021/12/04 13:52:01;;;;;;;;;;;5.50;99.90;;;;;;4990151;28;20076;-70
2021/12/04 13:54:30;;;;;;;;;;;5.50;99.90;;;;;;4989598;28;20158;-70
2021/12/04 13:56:59;;;;;;;;;;;5.50;99.90;;;;;;4998754;28;21166;-70
2021/12/04 13:59:27;;;;;;;;;;;5.50;99.90;;;;;;5002619;28;20078;-70
2021/12/04 14:01:55;;;;;;;;;;;5.50;99.90;;;;;;4997681;28;20142;-70
2021/12/04 14:04:22;;;;;;;;;;;5.50;99.90;;;;;;4995173;28;21098;-70
2021/12/04 14:06:50;;;;;;;;;;;5.50;99.90;;;;;;4999425;28;20075;-70
2021/12/04 14:09:18;;;;;;;;;;;5.40;99.90;;;;;;5012414;28;20060;-71
2021/12/04 14:11:45;;;;;;;;;;;5.30;99.90;;;;;;5003290;28;20061;-70
2021/12/04 14:14:14;;;;;;;;;;;5.30;99.90;;;;;;5007013;28;21153;-74
2021/12/04 14:16:42;;;;;;;;;;;5.30;99.90;;;;;;5004407;28;20104;-73
2021/12/04 14:19:16;;;;;;;;;;;5.20;99.90;;;;;;5011386;28;20069;-73
2021/12/04 14:21:52;;;;;;;;;;;5.10;99.90;;;;;;4993385;28;20068;-73
2021/12/04 14:24:24;;;;;;;;;;;5.10;99.90;;;;;;4999539;28;21126;-71
2021/12/04 14:26:52;;;;;;;;;;;5.10;99.90;;;;;;5007566;28;20078;-71
2021/12/04 14:29:21;;;;;;;;;;;5.10;99.90;;;;;;4996484;28;20068;-71
2021/12/04 14:31:49;;;;;;;;;;;5.10;99.90;;;;;;4993403;28;21273;-71
2021/12/04 14:34:23;;;;;;;;;;;5.00;99.90;;;;;;5014319;28;21029;-71
2021/12/04 14:36:59;;;;;;;;;;;5.00;99.90;;;;;;4997773;28;20178;-71
2021/12/04 14:39:26;;;;;;;;;;;5.00;99.90;;;;;;4991606;28;21091;-71
2021/12/04 14:41:54;;;;;;;;;;;5.00;99.90;;;;;;4993236;28;20077;-71
2021/12/04 14:44:22;;;;;;;;;;;5.00;99.90;;;;;;5006410;28;20068;-71
2021/12/04 14:46:50;;;;;;;;;;;5.00;99.90;;;;;;4993821;28;20069;-71
2021/12/04 14:49:17;;;;;;;;;;;5.00;99.90;;;;;;4995878;28;20068;-71
2021/12/04 14:51:46;;;;;;;;;;;5.00;99.90;;;;;;4993406;28;20190;-71
2021/12/04 14:54:14;;;;;;;;;;;5.00;99.90;;;;;;4990885;28;20341;-71
2021/12/04 14:56:41;;;;;;;;;;;5.00;99.90;;;;;;5010577;28;20105;-71
2021/12/04 14:59:15;;;;;;;;;;;5.00;99.90;;;;;;4991036;28;21160;-71
2021/12/04 15:01:44;;;;;;;;;;;4.90;99.90;;;;;;5002755;28;20059;-71
2021/12/04 15:04:11;;;;;;;;;;;4.90;99.90;;;;;;5011454;28;20105;-71
2021/12/04 15:06:40;;;;;;;;;;;4.80;99.90;;;;;;5009740;28;21147;-71
2021/12/04 15:09:10;;;;;;;;;;;4.80;99.90;;;;;;5013445;28;20082;-71
2021/12/04 15:11:37;;;;;;;;;;;4.70;99.90;;;;;;5006567;28;21236;-71
2021/12/04 15:14:09;;;;;;;;;;;4.70;99.90;;;;;;4987186;28;20061;-71
2021/12/04 15:16:39;;;;;;;;;;;4.70;99.90;;;;;;5013276;28;20060;-71
2021/12/04 15:19:12;;;;;;;;;;;4.60;99.90;;;;;;4991950;28;21218;-71
2021/12/04 15:21:43;;;;;;;;;;;4.60;99.90;;;;;;4997529;28;21066;-71
2021/12/04 15:24:13;;;;;;;;;;;4.60;99.90;;;;;;4997978;28;20352;-71
2021/12/04 15:26:41;;;;;;;;;;;4.60;99.90;;;;;;4997644;28;21100;-71
2021/12/04 15:29:15;;;;;;;;;;;4.60;99.90;;;;;;4988945;28;21186;-71
2021/12/04 15:31:42;;;;;;;;;;;4.70;99.90;;;;;;4990645;28;20074;-71
2021/12/04 15:34:11;;;;;;;;;;;4.70;99.90;;;;;;5012397;28;20060;-71
2021/12/04 15:36:40;;;;;;;;;;;4.70;99.90;;;;;;4991235;28;20364;-71
2021/12/04 15:39:11;;;;;;;;;;;4.70;99.90;;;;;;5003913;28;20213;-71
2021/12/04 15:41:47;;;;;;;;;;;4.80;99.90;;;;;;5010516;28;20097;-71
2021/12/04 15:47:10;;;;;;;;;;;4.90;99.90;;;;;;4976404;28;20069;-71
2021/12/04 15:55:10;;;;;;;;;;;4.90;99.90;;;;;;5006349;28;20056;-71
2021/12/04 15:57:37;;;;;;;;;;;5.00;99.90;;;;;;4982863;28;20075;-71
2021/12/04 16:00:06;;;;;;;;;;;5.00;99.90;;;;;;5009665;28;21328;-71
2021/12/04 16:02:40;;;;;;;;;;;5.00;99.90;;;;;;4991834;28;20272;-71
2021/12/04 16:05:11;;;;;;;;;;;5.00;99.90;;;;;;5003428;28;21141;-71
2021/12/04 16:07:38;;;;;;;;;;;5.00;99.90;;;;;;5012113;28;20067;-71
2021/12/04 16:10:11;;;;;;;;;;;5.00;99.90;;;;;;4998718;28;20069;-71
2021/12/04 16:12:39;;;;;;;;;;;5.00;99.90;;;;;;5011361;28;20059;-71
2021/12/04 16:15:07;;;;;;;;;;;5.00;99.90;;;;;;4996939;28;21199;-70
2021/12/04 16:17:35;;;;;;;;;;;5.10;99.90;;;;;;4989673;28;20068;-73
2021/12/04 16:20:06;;;;;;;;;;;5.10;99.90;;;;;;4990827;28;20069;-71
2021/12/04 16:22:37;;;;;;;;;;;5.10;99.90;;;;;;5000536;28;20059;-73
2021/12/04 16:25:06;;;;;;;;;;;5.20;99.90;;;;;;5025435;28;21226;-73
2021/12/04 16:27:44;;;;;;;;;;;5.20;99.90;;;;;;5009506;28;21190;-71
2021/12/04 16:30:26;;;;;;;;;;;5.10;99.90;;;;;;5032065;28;20269;-71
2021/12/04 16:33:00;;;;;;;;;;;5.20;99.90;;;;;;4993768;28;21155;-71
2021/12/04 16:35:39;;;;;;;;;;;5.20;99.90;;;;;;5003679;28;20076;-70
2021/12/04 16:38:10;;;;;;;;;;;5.20;99.90;;;;;;4991535;28;20077;-71
2021/12/04 16:40:38;;;;;;;;;;;5.20;99.90;;;;;;5022699;28;20164;-71
2021/12/04 16:43:08;;;;;;;;;;;5.20;99.90;;;;;;4996944;28;20097;-71
2021/12/04 16:45:36;;;;;;;;;;;5.20;99.90;;;;;;5000524;28;20294;-71
2021/12/04 16:48:06;;;;;;;;;;;5.20;99.90;;;;;;5007508;28;20771;-71
2021/12/04 16:50:45;;;;;;;;;;;5.20;99.90;;;;;;4991726;28;20232;-71
2021/12/04 16:56:15;;;;;;;;;;;5.20;99.90;;;;;;4983373;28;20069;-70
2021/12/04 16:58:44;;;;;;;;;;;5.20;99.90;;;;;;4986510;28;20060;-71
2021/12/04 17:01:12;;;;;;;;;;;5.20;99.90;;;;;;5007839;28;20058;-71
2021/12/04 17:03:39;;;;;;;;;;;5.20;99.90;;;;;;4991762;28;20161;-71
2021/12/04 17:06:06;;;;;;;;;;;5.20;99.90;;;;;;5030334;28;20099;-71
2021/12/04 17:08:35;;;;;;;;;;;5.20;99.90;;;;;;4993177;28;20171;-71
2021/12/04 17:11:02;;;;;;;;;;;5.20;99.90;;;;;;4987723;28;20059;-72